| time (UTC) | temp C | wind direction | speed KPH | gust KPH | rain 1hr cm | rain 24hr cm | rain mn cm | humidity % | barometer mb |
| 20260906122852 | 30 | 234 | 22.5 | 24.1 | 0.00 | 0.00 | 0.00 | 57 | 1014.2 |
| 20260906122355 | 30 | 228 | 32.2 | 38.6 | 0.00 | 0.00 | 0.00 | 56 | 1013.9 |
| 20260906121851 | 30 | 241 | 14.5 | 14.5 | 0.00 | 0.00 | 0.00 | 55 | 1013.9 |
| 20260906121351 | 30 | 230 | 33.8 | 40.2 | 0.00 | 0.00 | 0.00 | 56 | 1013.9 |
| 20260906120851 | 30 | 234 | 25.7 | 30.6 | 0.00 | 0.00 | 0.00 | 56 | 1013.9 |
| 20260906120351 | 30 | 287 | 40.2 | 43.5 | 0.00 | 0.00 | 0.00 | 55 | 1014.2 |
| 20260906115851 | 30 | 234 | 22.5 | 27.4 | 0.00 | 0.00 | 0.00 | 55 | 1014.6 |
| 20260906115352 | 30 | 249 | 24.1 | 29.0 | 0.00 | 0.00 | 0.00 | 54 | 1014.6 |
| 20260906114852 | 30 | 235 | 25.7 | 32.2 | 0.00 | 0.00 | 0.00 | 53 | 1014.2 |
| 20260906114351 | 30 | 240 | 17.7 | 19.3 | 0.00 | 0.00 | 0.00 | 54 | 1014.2 |
| 20260906113851 | 30 | 294 | 27.4 | 32.2 | 0.00 | 0.00 | 0.00 | 54 | 1014.6 |
| 20260906113351 | 30 | 294 | 19.3 | 25.7 | 0.00 | 0.00 | 0.00 | 54 | 1014.6 |
| 20260906112852 | 30 | 297 | 9.7 | 11.3 | 0.00 | 0.00 | 0.00 | 53 | 1014.6 |
| 20260906112351 | 31 | 291 | 29.0 | 32.2 | 0.00 | 0.00 | 0.00 | 54 | 1014.6 |
| 20260906111851 | 30 | 239 | 19.3 | 24.1 | 0.00 | 0.00 | 0.00 | 54 | 1014.6 |
| 20260906111351 | 30 | 241 | 27.4 | 30.6 | 0.00 | 0.00 | 0.00 | 55 | 1014.9 |
| 20260906110411 | 30 | 272 | 9.7 | 11.3 | 0.00 | 0.00 | 0.00 | 52 | 1014.9 |
| 20260906105851 | 30 | 243 | 25.7 | 30.6 | 0.00 | 0.00 | 0.00 | 54 | 1014.9 |
| 20260906105351 | 30 | 288 | 20.9 | 22.5 | 0.00 | 0.00 | 0.00 | 53 | 1014.9 |
| 20260906104852 | 30 | 270 | 22.5 | 25.7 | 0.00 | 0.00 | 0.00 | 54 | 1014.9 |
| 20260906104351 | 30 | 282 | 33.8 | 37.0 | 0.00 | 0.00 | 0.00 | 54 | 1014.9 |
| 20260906103852 | 30 | 252 | 27.4 | 32.2 | 0.00 | 0.00 | 0.00 | 53 | 1014.6 |
| 20260906102851 | 30 | 204 | 24.1 | 29.0 | 0.00 | 0.00 | 0.00 | 55 | 1014.6 |
| 20260906102351 | 30 | 275 | 30.6 | 32.2 | 0.00 | 0.00 | 0.00 | 56 | 1014.9 |
| 20260906101852 | 30 | 263 | 30.6 | 33.8 | 0.00 | 0.00 | 0.00 | 56 | 1014.9 |
| 20260906101351 | 30 | 285 | 17.7 | 17.7 | 0.00 | 0.00 | 0.00 | 55 | 1014.6 |
| 20260906100851 | 30 | 276 | 27.4 | 32.2 | 0.00 | 0.00 | 0.00 | 56 | 1014.9 |
| 20260906100351 | 30 | 244 | 16.1 | 17.7 | 0.00 | 0.00 | 0.00 | 54 | 1014.9 |
| 20260906095851 | 30 | 272 | 27.4 | 33.8 | 0.00 | 0.00 | 0.00 | 54 | 1014.9 |
| 20260906095351 | 30 | 206 | 9.7 | 11.3 | 0.00 | 0.00 | 0.00 | 52 | 1014.9 |
| 20260906094851 | 30 | 349 | 3.2 | 3.2 | 0.00 | 0.00 | 0.00 | 53 | 1015.2 |
| 20260906094352 | 30 | 162 | 8.0 | 8.0 | 0.00 | 0.00 | 0.00 | 52 | 1015.2 |
| 20260906093851 | 30 | 294 | 19.3 | 22.5 | 0.00 | 0.00 | 0.00 | 54 | 1015.2 |
| 20260906093352 | 30 | 303 | 27.4 | 32.2 | 0.00 | 0.00 | 0.00 | 55 | 1015.6 |
| 20260906092851 | 30 | 318 | 14.5 | 17.7 | 0.00 | 0.00 | 0.00 | 55 | 1015.6 |
| 20260906092352 | 30 | 287 | 14.5 | 16.1 | 0.00 | 0.00 | 0.00 | 55 | 1015.2 |
| 20260906091851 | 30 | 292 | 20.9 | 24.1 | 0.00 | 0.00 | 0.00 | 55 | 1015.6 |
| 20260906091351 | 30 | 185 | 17.7 | 24.1 | 0.00 | 0.00 | 0.00 | 56 | 1015.6 |
| 20260906090852 | 30 | 263 | 16.1 | 17.7 | 0.00 | 0.00 | 0.00 | 55 | 1015.6 |
| 20260906090352 | 30 | 276 | 32.2 | 33.8 | 0.00 | 0.00 | 0.00 | 58 | 1015.6 |
| 20260906085851 | 30 | 313 | 20.9 | 22.5 | 0.00 | 0.00 | 0.00 | 57 | 1015.6 |
| 20260906085351 | 30 | 303 | 11.3 | 12.9 | 0.00 | 0.00 | 0.00 | 57 | 1015.9 |
| 20260906084851 | 30 | 270 | 20.9 | 22.5 | 0.00 | 0.00 | 0.00 | 55 | 1015.9 |
| 20260906084351 | 30 | 264 | 25.7 | 32.2 | 0.00 | 0.00 | 0.00 | 56 | 1015.9 |
| 20260906083852 | 30 | 282 | 17.7 | 19.3 | 0.00 | 0.00 | 0.00 | 56 | 1015.9 |
| 20260906083352 | 30 | 191 | 14.5 | 14.5 | 0.00 | 0.00 | 0.00 | 57 | 1015.6 |
| 20260906082851 | 29 | 306 | 25.7 | 30.6 | 0.00 | 0.00 | 0.00 | 57 | 1015.6 |
| 20260906082351 | 30 | 300 | 11.3 | 12.9 | 0.00 | 0.00 | 0.00 | 56 | 1015.9 |
| 20260906081853 | 30 | 311 | 14.5 | 14.5 | 0.00 | 0.00 | 0.00 | 56 | 1015.6 |
| 20260906081351 | 30 | 282 | 17.7 | 20.9 | 0.00 | 0.00 | 0.00 | 55 | 1015.6 |
| 20260906080852 | 30 | 282 | 25.7 | 32.2 | 0.00 | 0.00 | 0.00 | 56 | 1015.9 |
| 20260906080351 | 30 | 262 | 14.5 | 14.5 | 0.00 | 0.00 | 0.00 | 57 | 1015.9 |
| 20260906075851 | 30 | 234 | 24.1 | 27.4 | 0.00 | 0.00 | 0.00 | 56 | 1015.9 |
| 20260906075351 | 30 | 282 | 12.9 | 12.9 | 0.00 | 0.00 | 0.00 | 57 | 1016.3 |
| 20260906074852 | 30 | 204 | 16.1 | 17.7 | 0.00 | 0.00 | 0.00 | 57 | 1016.3 |
| 20260906074351 | 29 | 259 | 27.4 | 32.2 | 0.00 | 0.00 | 0.00 | 57 | 1015.6 |
| 20260906073851 | 30 | 317 | 14.5 | 16.1 | 0.00 | 0.00 | 0.00 | 56 | 1015.6 |
| 20260906073351 | 30 | 251 | 19.3 | 24.1 | 0.00 | 0.00 | 0.00 | 56 | 1015.6 |
| 20260906072851 | 29 | 271 | 24.1 | 25.7 | 0.00 | 0.00 | 0.00 | 56 | 1015.6 |
| 20260906072351 | 29 | 293 | 17.7 | 22.5 | 0.00 | 0.00 | 0.00 | 56 | 1015.6 |
| 20260906071851 | 29 | 292 | 24.1 | 27.4 | 0.00 | 0.00 | 0.00 | 56 | 1015.6 |
| 20260906071351 | 29 | 282 | 20.9 | 24.1 | 0.00 | 0.00 | 0.00 | 55 | 1015.9 |
| 20260906070852 | 29 | 306 | 17.7 | 24.1 | 0.00 | 0.00 | 0.00 | 57 | 1015.9 |
| 20260906070352 | 30 | 270 | 19.3 | 25.7 | 0.00 | 0.00 | 0.00 | 55 | 1015.6 |
| 20260906065852 | 29 | 287 | 20.9 | 24.1 | 0.00 | 0.00 | 0.00 | 56 | 1015.9 |
| 20260906065351 | 29 | 257 | 29.0 | 32.2 | 0.00 | 0.00 | 0.00 | 56 | 1015.6 |
| 20260906064851 | 28 | 265 | 20.9 | 24.1 | 0.00 | 0.00 | 0.00 | 58 | 1015.6 |
| 20260906064352 | 28 | 276 | 20.9 | 22.5 | 0.00 | 0.00 | 0.00 | 58 | 1015.6 |
| 20260906063851 | 28 | 227 | 16.1 | 17.7 | 0.00 | 0.00 | 0.00 | 59 | 1015.6 |
| 20260906063351 | 28 | 244 | 22.5 | 29.0 | 0.00 | 0.00 | 0.00 | 60 | 1015.6 |
| 20260906062419 | 28 | 252 | 20.9 | 24.1 | 0.00 | 0.00 | 0.00 | 60 | 1015.6 |
| 20260906061851 | 28 | 228 | 6.4 | 8.0 | 0.00 | 0.00 | 0.00 | 60 | 1015.6 |
| 20260906061351 | 28 | 191 | 25.7 | 30.6 | 0.00 | 0.00 | 0.00 | 60 | 1015.6 |
| 20260906060851 | 28 | 252 | 12.9 | 12.9 | 0.00 | 0.00 | 0.00 | 61 | 1015.9 |
| 20260906060351 | 28 | 257 | 16.1 | 20.9 | 0.00 | 0.00 | 0.00 | 60 | 1015.6 |
| 20260906055851 | 28 | 286 | 22.5 | 25.7 | 0.00 | 0.00 | 0.00 | 61 | 1015.9 |
| 20260906055351 | 28 | 262 | 25.7 | 29.0 | 0.00 | 0.00 | 0.00 | 61 | 1015.9 |
| 20260906054852 | 28 | 288 | 17.7 | 22.5 | 0.00 | 0.00 | 0.00 | 61 | 1015.9 |
| 20260906054351 | 28 | 245 | 29.0 | 32.2 | 0.00 | 0.00 | 0.00 | 61 | 1015.9 |
| 20260906053852 | 27 | 277 | 25.7 | 29.0 | 0.00 | 0.00 | 0.00 | 61 | 1015.6 |
| 20260906053351 | 27 | 278 | 12.9 | 12.9 | 0.00 | 0.00 | 0.00 | 62 | 1015.6 |
| 20260906052852 | 27 | 324 | 17.7 | 19.3 | 0.00 | 0.00 | 0.00 | 62 | 1015.6 |
| 20260906052351 | 27 | 260 | 20.9 | 27.4 | 0.00 | 0.00 | 0.00 | 62 | 1015.6 |
| 20260906051851 | 27 | 288 | 22.5 | 27.4 | 0.00 | 0.00 | 0.00 | 62 | 1015.6 |
| 20260906051351 | 27 | 258 | 29.0 | 32.2 | 0.00 | 0.00 | 0.00 | 63 | 1015.6 |
| 20260906050852 | 27 | 315 | 12.9 | 14.5 | 0.00 | 0.00 | 0.00 | 63 | 1015.6 |
| 20260906050352 | 27 | 191 | 17.7 | 22.5 | 0.00 | 0.00 | 0.00 | 64 | 1015.2 |
| 20260906045852 | 27 | 309 | 22.5 | 24.1 | 0.00 | 0.00 | 0.00 | 65 | 1015.6 |
| 20260906045351 | 27 | 252 | 17.7 | 17.7 | 0.00 | 0.00 | 0.00 | 64 | 1015.6 |
| 20260906044852 | 27 | 288 | 11.3 | 11.3 | 0.00 | 0.00 | 0.00 | 63 | 1015.2 |
| 20260906044351 | 27 | 282 | 11.3 | 11.3 | 0.00 | 0.00 | 0.00 | 62 | 1015.2 |
| 20260906043852 | 27 | 276 | 11.3 | 12.9 | 0.00 | 0.00 | 0.00 | 62 | 1015.6 |
| 20260906043352 | 27 | 246 | 8.0 | 9.7 | 0.00 | 0.00 | 0.00 | 62 | 1015.2 |
| 20260906042852 | 27 | 222 | 14.5 | 14.5 | 0.00 | 0.00 | 0.00 | 62 | 1015.6 |
| 20260906042351 | 27 | 262 | 8.0 | 8.0 | 0.00 | 0.00 | 0.00 | 63 | 1015.6 |
| 20260906041852 | 26 | 300 | 14.5 | 16.1 | 0.00 | 0.00 | 0.00 | 64 | 1015.2 |
| 20260906041352 | 26 | 265 | 6.4 | 8.0 | 0.00 | 0.00 | 0.00 | 64 | 1015.6 |
| 20260906040852 | 27 | 342 | 17.7 | 20.9 | 0.00 | 0.00 | 0.00 | 64 | 1015.2 |
| 20260906040351 | 27 | 6 | 8.0 | 8.0 | 0.00 | 0.00 | 0.00 | 64 | 1015.2 |
| 20260906035851 | 27 | 288 | 9.7 | 11.3 | 0.00 | 0.00 | 0.00 | 65 | 1015.6 |
| 20260906035351 | 27 | 246 | 14.5 | 16.1 | 0.00 | 0.00 | 0.00 | 65 | 1015.6 |
| 20260906034852 | 27 | 288 | 17.7 | 20.9 | 0.00 | 0.00 | 0.00 | 65 | 1015.6 |
| 20260906034351 | 27 | 264 | 9.7 | 11.3 | 0.00 | 0.00 | 0.00 | 65 | 1015.6 |
| 20260906033852 | 27 | 162 | 19.3 | 22.5 | 0.00 | 0.00 | 0.00 | 65 | 1015.6 |
| 20260906033352 | 27 | 233 | 20.9 | 24.1 | 0.00 | 0.00 | 0.00 | 65 | 1015.6 |
| 20260906032852 | 27 | 253 | 4.8 | 4.8 | 0.00 | 0.00 | 0.00 | 65 | 1015.6 |
| 20260906032353 | 27 | 247 | 17.7 | 19.3 | 0.00 | 0.00 | 0.00 | 65 | 1015.6 |
| 20260906031851 | 27 | 282 | 12.9 | 12.9 | 0.00 | 0.00 | 0.00 | 66 | 1015.2 |
| 20260906031351 | 27 | 282 | 6.4 | 8.0 | 0.00 | 0.00 | 0.00 | 65 | 1015.2 |
| 20260906030851 | 26 | 294 | 3.2 | 3.2 | 0.00 | 0.00 | 0.00 | 65 | 1015.6 |
| 20260906030351 | 27 | 212 | 9.7 | 11.3 | 0.00 | 0.00 | 0.00 | 64 | 1015.6 |
| 20260906025851 | 27 | 312 | 8.0 | 8.0 | 0.00 | 0.00 | 0.00 | 64 | 1015.2 |
| 20260906025352 | 26 | 199 | 4.8 | 4.8 | 0.00 | 0.00 | 0.00 | 64 | 1015.6 |
| 20260906024852 | 26 | 259 | 4.8 | 4.8 | 0.00 | 0.00 | 0.00 | 66 | 1015.6 |
| 20260906024352 | 26 | 298 | 4.8 | 4.8 | 0.00 | 0.00 | 0.00 | 66 | 1015.2 |
| 20260906023852 | 26 | 278 | 16.1 | 20.9 | 0.00 | 0.00 | 0.00 | 66 | 1015.2 |
| 20260906023352 | 26 | 267 | 8.0 | 9.7 | 0.00 | 0.00 | 0.00 | 65 | 1015.6 |
| 20260906022852 | 26 | 315 | 8.0 | 8.0 | 0.00 | 0.00 | 0.00 | 65 | 1015.2 |
| 20260906022353 | 26 | 34 | 3.2 | 3.2 | 0.00 | 0.00 | 0.00 | 64 | 1015.6 |
| 20260906021852 | 26 | 282 | 4.8 | 4.8 | 0.00 | 0.00 | 0.00 | 64 | 1015.2 |
| 20260906021351 | 26 | 318 | 3.2 | 3.2 | 0.00 | 0.00 | 0.00 | 64 | 1015.2 |
| 20260906020851 | 26 | 360 | 4.8 | 4.8 | 0.00 | 0.00 | 0.00 | 65 | 1015.6 |
| 20260906020351 | 26 | 270 | 4.8 | 4.8 | 0.00 | 0.00 | 0.00 | 65 | 1015.6 |
| 20260906015851 | 26 | 118 | 4.8 | 4.8 | 0.00 | 0.00 | 0.00 | 65 | 1015.6 |
| 20260906015351 | 26 | 264 | 11.3 | 11.3 | 0.00 | 0.00 | 0.00 | 64 | 1015.6 |
| 20260906014853 | 26 | 174 | 4.8 | 4.8 | 0.00 | 0.00 | 0.00 | 65 | 1015.6 |
| 20260906014351 | 26 | 318 | 3.2 | 3.2 | 0.00 | 0.00 | 0.00 | 66 | 1015.2 |
| 20260906013851 | 26 | 352 | 6.4 | 6.4 | 0.00 | 0.00 | 0.00 | 66 | 1015.2 |
| 20260906013352 | 26 | 218 | 0.0 | 0.0 | 0.00 | 0.00 | 0.00 | 66 | 1015.6 |
| 20260906012851 | 26 | 319 | 1.6 | 1.6 | 0.00 | 0.00 | 0.00 | 66 | 1015.2 |
| 20260906012352 | 26 | 84 | 4.8 | 4.8 | 0.00 | 0.00 | 0.00 | 66 | 1015.2 |
| 20260906011855 | 26 | 106 | 12.9 | 12.9 | 0.00 | 0.00 | 0.00 | 65 | 1015.2 |
| 20260906011352 | 26 | 287 | 8.0 | 8.0 | 0.00 | 0.00 | 0.00 | 64 | 1015.2 |
| 20260906010851 | 26 | 8 | 4.8 | 4.8 | 0.00 | 0.00 | 0.00 | 67 | 1015.2 |
| 20260906010352 | 26 | 59 | 4.8 | 4.8 | 0.00 | 0.00 | 0.00 | 66 | 1015.2 |
| 20260906005852 | 26 | 92 | 1.6 | 1.6 | 0.00 | 0.00 | 0.00 | 66 | 1015.6 |
| 20260906005352 | 26 | 122 | 3.2 | 3.2 | 0.00 | 0.00 | 0.00 | 65 | 1015.2 |
| 20260906004851 | 27 | 7 | 6.4 | 8.0 | 0.00 | 0.00 | 0.00 | 65 | 1015.6 |
| 20260906004351 | 27 | 276 | 8.0 | 9.7 | 0.00 | 0.00 | 0.00 | 64 | 1015.6 |
| 20260906003852 | 27 | 56 | 3.2 | 3.2 | 0.00 | 0.00 | 0.00 | 62 | 1015.2 |
| 20260906003351 | 27 | 282 | 20.9 | 25.7 | 0.00 | 0.00 | 0.00 | 63 | 1015.2 |
| 20260906002851 | 27 | 324 | 11.3 | 12.9 | 0.00 | 0.00 | 0.00 | 63 | 1015.2 |
| 20260906002351 | 27 | 223 | 3.2 | 3.2 | 0.00 | 0.00 | 0.00 | 62 | 1015.2 |
| 20260906001853 | 27 | 343 | 6.4 | 8.0 | 0.00 | 0.00 | 0.00 | 61 | 1015.2 |
| 20260906001351 | 27 | 102 | 6.4 | 6.4 | 0.00 | 0.00 | 0.00 | 60 | 1015.2 |
| 20260906000851 | 27 | 265 | 30.6 | 33.8 | 0.00 | 0.00 | 0.00 | 61 | 1015.2 |
| 20260906000351 | 27 | 350 | 16.1 | 17.7 | 0.00 | 0.00 | 0.00 | 61 | 1015.2 |
| 20260905235852 | 27 | 276 | 22.5 | 25.7 | 0.00 | 0.00 | 0.00 | 61 | 1015.2 |
| 20260905235356 | 27 | 288 | 16.1 | 17.7 | 0.00 | 0.00 | 0.00 | 62 | 1015.2 |
| 20260905234852 | 27 | 276 | 20.9 | 22.5 | 0.00 | 0.00 | 0.00 | 62 | 1015.2 |
| 20260905234351 | 27 | 318 | 8.0 | 11.3 | 0.00 | 0.00 | 0.00 | 62 | 1015.2 |
| 20260905233851 | 27 | 271 | 14.5 | 16.1 | 0.00 | 0.00 | 0.00 | 62 | 1015.2 |
| 20260905233351 | 27 | 226 | 14.5 | 17.7 | 0.00 | 0.00 | 0.00 | 61 | 1015.2 |
| 20260905232851 | 27 | 253 | 19.3 | 22.5 | 0.00 | 0.00 | 0.00 | 60 | 1015.2 |
| 20260905232351 | 27 | 260 | 12.9 | 12.9 | 0.00 | 0.00 | 0.00 | 59 | 1015.2 |
| 20260905231852 | 27 | 288 | 16.1 | 17.7 | 0.00 | 0.00 | 0.00 | 59 | 1015.2 |
| 20260905231352 | 27 | 300 | 12.9 | 12.9 | 0.00 | 0.00 | 0.00 | 58 | 1015.2 |
| 20260905230902 | 27 | 354 | 16.1 | 17.7 | 0.00 | 0.00 | 0.00 | 58 | 1015.2 |
| 20260905230351 | 27 | 311 | 14.5 | 16.1 | 0.00 | 0.00 | 0.00 | 58 | 1015.2 |
| 20260905225853 | 27 | 282 | 32.2 | 33.8 | 0.00 | 0.00 | 0.00 | 58 | 1015.2 |
| 20260905225352 | 27 | 230 | 8.0 | 8.0 | 0.00 | 0.00 | 0.00 | 59 | 1015.2 |
| 20260905224851 | 27 | 324 | 19.3 | 24.1 | 0.00 | 0.00 | 0.00 | 58 | 1015.2 |
| 20260905224351 | 27 | 318 | 9.7 | 11.3 | 0.00 | 0.00 | 0.00 | 60 | 1015.6 |
| 20260905223851 | 27 | 312 | 12.9 | 12.9 | 0.00 | 0.00 | 0.00 | 60 | 1015.6 |
| 20260905223351 | 27 | 294 | 17.7 | 24.1 | 0.00 | 0.00 | 0.00 | 61 | 1015.6 |
| 20260905222852 | 27 | 294 | 4.8 | 4.8 | 0.00 | 0.00 | 0.00 | 61 | 1015.9 |
| 20260905222351 | 27 | 330 | 16.1 | 19.3 | 0.00 | 0.00 | 0.00 | 60 | 1015.9 |
| 20260905221851 | 27 | 347 | 11.3 | 12.9 | 0.00 | 0.00 | 0.00 | 61 | 1015.9 |
| 20260905221352 | 27 | 311 | 24.1 | 30.6 | 0.00 | 0.00 | 0.00 | 60 | 1015.6 |
| 20260905220851 | 27 | 322 | 14.5 | 17.7 | 0.00 | 0.00 | 0.00 | 60 | 1015.9 |
| 20260905220351 | 27 | 256 | 9.7 | 11.3 | 0.00 | 0.00 | 0.00 | 61 | 1015.9 |
| 20260905215851 | 27 | 318 | 11.3 | 11.3 | 0.00 | 0.00 | 0.00 | 60 | 1015.9 |
| 20260905215352 | 27 | 288 | 6.4 | 6.4 | 0.00 | 0.00 | 0.00 | 60 | 1015.9 |
| 20260905214851 | 27 | 251 | 22.5 | 24.1 | 0.00 | 0.00 | 0.00 | 59 | 1015.9 |
| 20260905214352 | 27 | 282 | 14.5 | 17.7 | 0.00 | 0.00 | 0.00 | 60 | 1015.9 |
| 20260905213851 | 27 | 282 | 17.7 | 17.7 | 0.00 | 0.00 | 0.00 | 60 | 1015.9 |
| 20260905213351 | 27 | 263 | 20.9 | 22.5 | 0.00 | 0.00 | 0.00 | 60 | 1015.9 |
| 20260905212852 | 27 | 277 | 12.9 | 14.5 | 0.00 | 0.00 | 0.00 | 60 | 1015.9 |
| 20260905212351 | 27 | 246 | 27.4 | 32.2 | 0.00 | 0.00 | 0.00 | 60 | 1016.3 |
| 20260905211851 | 27 | 316 | 14.5 | 16.1 | 0.00 | 0.00 | 0.00 | 60 | 1015.9 |
| 20260905211351 | 27 | 292 | 12.9 | 14.5 | 0.00 | 0.00 | 0.00 | 59 | 1016.3 |
| 20260905210852 | 27 | 264 | 8.0 | 8.0 | 0.00 | 0.00 | 0.00 | 59 | 1016.3 |
| 20260905210351 | 27 | 212 | 11.3 | 12.9 | 0.00 | 0.00 | 0.00 | 59 | 1016.3 |
| 20260905205851 | 27 | 211 | 12.9 | 14.5 | 0.00 | 0.00 | 0.00 | 60 | 1016.3 |
| 20260905205351 | 27 | 257 | 12.9 | 12.9 | 0.00 | 0.00 | 0.00 | 59 | 1016.3 |
| 20260905204851 | 27 | 258 | 16.1 | 19.3 | 0.00 | 0.00 | 0.00 | 58 | 1016.3 |
| 20260905204351 | 27 | 333 | 12.9 | 14.5 | 0.00 | 0.00 | 0.00 | 57 | 1016.3 |
| 20260905203853 | 27 | 239 | 14.5 | 16.1 | 0.00 | 0.00 | 0.00 | 57 | 1016.3 |
| 20260905203351 | 27 | 213 | 16.1 | 19.3 | 0.00 | 0.00 | 0.00 | 56 | 1015.9 |
| 20260905202851 | 27 | 294 | 16.1 | 19.3 | 0.00 | 0.00 | 0.00 | 60 | 1016.3 |
| 20260905202351 | 27 | 282 | 20.9 | 22.5 | 0.00 | 0.00 | 0.00 | 61 | 1016.3 |
| 20260905201852 | 27 | 282 | 17.7 | 24.1 | 0.00 | 0.00 | 0.00 | 59 | 1016.3 |
| 20260905201351 | 27 | 318 | 14.5 | 16.1 | 0.00 | 0.00 | 0.00 | 58 | 1016.3 |
| 20260905200851 | 27 | 131 | 4.8 | 4.8 | 0.00 | 0.00 | 0.00 | 59 | 1016.3 |
| 20260905200351 | 27 | 217 | 8.0 | 8.0 | 0.00 | 0.00 | 0.00 | 58 | 1016.3 |
| 20260905195852 | 27 | 287 | 3.2 | 3.2 | 0.00 | 0.00 | 0.00 | 59 | 1015.9 |
| 20260905195351 | 27 | 282 | 8.0 | 8.0 | 0.00 | 0.00 | 0.00 | 58 | 1016.3 |
| 20260905194851 | 27 | 244 | 19.3 | 24.1 | 0.00 | 0.00 | 0.00 | 59 | 1016.3 |
| 20260905194352 | 27 | 342 | 3.2 | 3.2 | 0.00 | 0.00 | 0.00 | 59 | 1016.3 |
| 20260905193851 | 27 | 211 | 6.4 | 8.0 | 0.00 | 0.00 | 0.00 | 61 | 1015.9 |
| 20260905193351 | 27 | 233 | 12.9 | 14.5 | 0.00 | 0.00 | 0.00 | 62 | 1015.9 |
| 20260905192851 | 27 | 42 | 3.2 | 3.2 | 0.00 | 0.00 | 0.00 | 58 | 1015.6 |
| 20260905192352 | 27 | 331 | 16.1 | 17.7 | 0.00 | 0.00 | 0.00 | 64 | 1015.9 |
| 20260905191851 | 27 | 300 | 14.5 | 16.1 | 0.00 | 0.00 | 0.00 | 64 | 1015.9 |
| 20260905191351 | 27 | 282 | 8.0 | 8.0 | 0.00 | 0.00 | 0.00 | 65 | 1015.6 |
| 20260905190852 | 27 | 255 | 11.3 | 11.3 | 0.00 | 0.00 | 0.00 | 66 | 1015.9 |
| 20260905190351 | 27 | 294 | 19.3 | 22.5 | 0.00 | 0.00 | 0.00 | 66 | 1015.9 |
| 20260905185851 | 27 | 271 | 14.5 | 14.5 | 0.00 | 0.00 | 0.00 | 66 | 1015.9 |
| 20260905185351 | 27 | 264 | 22.5 | 24.1 | 0.00 | 0.00 | 0.00 | 65 | 1015.6 |
| 20260905184851 | 27 | 300 | 14.5 | 17.7 | 0.00 | 0.00 | 0.00 | 65 | 1015.9 |
| 20260905184351 | 27 | 276 | 24.1 | 27.4 | 0.00 | 0.00 | 0.00 | 67 | 1015.6 |
| 20260905183851 | 27 | 306 | 22.5 | 24.1 | 0.00 | 0.00 | 0.00 | 66 | 1015.6 |
| 20260905183352 | 27 | 276 | 22.5 | 24.1 | 0.00 | 0.00 | 0.00 | 66 | 1015.9 |
| 20260905182851 | 27 | 292 | 22.5 | 24.1 | 0.00 | 0.00 | 0.00 | 68 | 1015.9 |
| 20260905182352 | 27 | 282 | 14.5 | 14.5 | 0.00 | 0.00 | 0.00 | 68 | 1015.9 |
| 20260905181851 | 27 | 288 | 17.7 | 24.1 | 0.00 | 0.00 | 0.00 | 67 | 1015.9 |
| 20260905181352 | 27 | 263 | 22.5 | 27.4 | 0.00 | 0.00 | 0.00 | 67 | 1016.3 |
| 20260905180851 | 27 | 298 | 8.0 | 8.0 | 0.00 | 0.00 | 0.00 | 68 | 1016.3 |
| 20260905180352 | 27 | 270 | 6.4 | 8.0 | 0.00 | 0.00 | 0.00 | 68 | 1015.9 |
| 20260905175852 | 27 | 288 | 17.7 | 22.5 | 0.00 | 0.00 | 0.00 | 69 | 1015.9 |
| 20260905175353 | 27 | 292 | 9.7 | 11.3 | 0.00 | 0.00 | 0.00 | 69 | 1015.9 |
| 20260905174851 | 27 | 282 | 20.9 | 27.4 | 0.00 | 0.00 | 0.00 | 68 | 1015.9 |
| 20260905174351 | 27 | 293 | 14.5 | 17.7 | 0.00 | 0.00 | 0.00 | 68 | 1015.9 |
| 20260905173852 | 27 | 273 | 17.7 | 22.5 | 0.00 | 0.00 | 0.00 | 68 | 1015.6 |
| 20260905173351 | 27 | 258 | 14.5 | 14.5 | 0.00 | 0.00 | 0.00 | 67 | 1015.9 |
| 20260905172852 | 27 | 276 | 17.7 | 19.3 | 0.00 | 0.00 | 0.00 | 68 | 1015.6 |
| 20260905172352 | 27 | 282 | 29.0 | 33.8 | 0.00 | 0.00 | 0.00 | 68 | 1015.6 |
| 20260905171852 | 27 | 320 | 11.3 | 11.3 | 0.00 | 0.00 | 0.00 | 68 | 1015.6 |
| 20260905171351 | 27 | 282 | 24.1 | 29.0 | 0.00 | 0.00 | 0.00 | 68 | 1015.6 |
| 20260905170852 | 28 | 288 | 17.7 | 22.5 | 0.00 | 0.00 | 0.00 | 67 | 1015.6 |
| 20260905170351 | 28 | 270 | 11.3 | 11.3 | 0.00 | 0.00 | 0.00 | 67 | 1015.2 |
| 20260905165854 | 28 | 286 | 12.9 | 12.9 | 0.00 | 0.00 | 0.00 | 65 | 1015.6 |
| 20260905165352 | 28 | 300 | 8.0 | 8.0 | 0.00 | 0.00 | 0.00 | 66 | 1015.2 |
| 20260905164852 | 28 | 239 | 12.9 | 12.9 | 0.00 | 0.00 | 0.00 | 67 | 1014.9 |
| 20260905164351 | 28 | 338 | 14.5 | 17.7 | 0.00 | 0.00 | 0.00 | 68 | 1015.2 |
| 20260905163852 | 28 | 288 | 14.5 | 17.7 | 0.00 | 0.00 | 0.00 | 67 | 1015.2 |
| 20260905163352 | 28 | 304 | 6.4 | 6.4 | 0.00 | 0.00 | 0.00 | 67 | 1015.2 |
| 20260905162852 | 28 | 252 | 16.1 | 17.7 | 0.00 | 0.00 | 0.00 | 67 | 1014.9 |
| 20260905162352 | 28 | 270 | 22.5 | 24.1 | 0.00 | 0.00 | 0.00 | 66 | 1014.9 |
| 20260905161851 | 28 | 234 | 6.4 | 6.4 | 0.00 | 0.00 | 0.00 | 66 | 1015.2 |
| 20260905161351 | 28 | 286 | 11.3 | 11.3 | 0.00 | 0.00 | 0.00 | 66 | 1015.2 |
| 20260905160851 | 28 | 271 | 9.7 | 11.3 | 0.00 | 0.00 | 0.00 | 66 | 1015.2 |
| 20260905160352 | 28 | 276 | 12.9 | 12.9 | 0.00 | 0.00 | 0.00 | 66 | 1014.9 |
| 20260905155851 | 28 | 282 | 14.5 | 16.1 | 0.00 | 0.00 | 0.00 | 66 | 1015.2 |
| 20260905155352 | 28 | 303 | 16.1 | 17.7 | 0.00 | 0.00 | 0.00 | 64 | 1014.9 |
| 20260905154851 | 28 | 263 | 17.7 | 22.5 | 0.00 | 0.00 | 0.00 | 65 | 1014.9 |
| 20260905154351 | 29 | 251 | 19.3 | 22.5 | 0.00 | 0.00 | 0.00 | 65 | 1014.9 |
| 20260905153852 | 29 | 282 | 24.1 | 25.7 | 0.00 | 0.00 | 0.00 | 64 | 1014.9 |
| 20260905153351 | 29 | 252 | 14.5 | 17.7 | 0.00 | 0.00 | 0.00 | 63 | 1014.9 |
| 20260905152851 | 29 | 276 | 19.3 | 24.1 | 0.00 | 0.00 | 0.00 | 63 | 1014.9 |
| 20260905152351 | 30 | 288 | 12.9 | 12.9 | 0.00 | 0.00 | 0.00 | 63 | 1015.2 |
| 20260905151851 | 30 | 291 | 29.0 | 32.2 | 0.00 | 0.00 | 0.00 | 62 | 1015.2 |
| 20260905151351 | 30 | 268 | 25.7 | 29.0 | 0.00 | 0.00 | 0.00 | 62 | 1014.9 |
| 20260905150851 | 30 | 276 | 20.9 | 24.1 | 0.00 | 0.00 | 0.00 | 61 | 1014.9 |
| 20260905150352 | 30 | 277 | 14.5 | 17.7 | 0.00 | 0.00 | 0.00 | 61 | 1014.9 |
| 20260905145852 | 30 | 338 | 14.5 | 14.5 | 0.00 | 0.00 | 0.00 | 60 | 1014.9 |
| 20260905145351 | 30 | 210 | 20.9 | 22.5 | 0.00 | 0.00 | 0.00 | 59 | 1014.9 |
| 20260905144852 | 30 | 282 | 14.5 | 14.5 | 0.00 | 0.00 | 0.00 | 59 | 1014.9 |
| 20260905144351 | 30 | 275 | 17.7 | 22.5 | 0.00 | 0.00 | 0.00 | 59 | 1014.9 |
| 20260905143851 | 30 | 252 | 17.7 | 20.9 | 0.00 | 0.00 | 0.00 | 59 | 1014.9 |
| 20260905143351 | 30 | 230 | 27.4 | 32.2 | 0.00 | 0.00 | 0.00 | 59 | 1014.9 |
| 20260905142851 | 30 | 282 | 29.0 | 32.2 | 0.00 | 0.00 | 0.00 | 60 | 1014.9 |
| 20260905142352 | 30 | 270 | 20.9 | 24.1 | 0.00 | 0.00 | 0.00 | 58 | 1014.6 |
| 20260905141852 | 30 | 332 | 30.6 | 33.8 | 0.00 | 0.00 | 0.00 | 58 | 1014.6 |
| 20260905141351 | 30 | 294 | 12.9 | 12.9 | 0.00 | 0.00 | 0.00 | 57 | 1014.9 |
| 20260905140851 | 30 | 276 | 8.0 | 8.0 | 0.00 | 0.00 | 0.00 | 57 | 1014.6 |
| 20260905140353 | 30 | 276 | 12.9 | 12.9 | 0.00 | 0.00 | 0.00 | 57 | 1014.9 |
| 20260905135852 | 30 | 252 | 17.7 | 24.1 | 0.00 | 0.00 | 0.00 | 57 | 1014.6 |
| 20260905135352 | 30 | 294 | 14.5 | 17.7 | 0.00 | 0.00 | 0.00 | 56 | 1014.6 |
| 20260905134851 | 30 | 310 | 12.9 | 14.5 | 0.00 | 0.00 | 0.00 | 57 | 1014.6 |
| 20260905134352 | 30 | 264 | 27.4 | 30.6 | 0.00 | 0.00 | 0.00 | 57 | 1014.9 |
| 20260905133851 | 30 | 258 | 17.7 | 20.9 | 0.00 | 0.00 | 0.00 | 57 | 1014.9 |
| 20260905133351 | 30 | 234 | 17.7 | 20.9 | 0.00 | 0.00 | 0.00 | 57 | 1014.6 |
| 20260905132851 | 30 | 301 | 22.5 | 25.7 | 0.00 | 0.00 | 0.00 | 56 | 1014.6 |
| 20260905132352 | 30 | 245 | 22.5 | 24.1 | 0.00 | 0.00 | 0.00 | 56 | 1014.6 |
| 20260905131854 | 31 | 271 | 22.5 | 27.4 | 0.00 | 0.00 | 0.00 | 56 | 1014.6 |
| 20260905131351 | 30 | 282 | 19.3 | 22.5 | 0.00 | 0.00 | 0.00 | 56 | 1014.6 |
| 20260905130851 | 30 | 256 | 12.9 | 12.9 | 0.00 | 0.00 | 0.00 | 56 | 1014.6 |
| 20260905130351 | 30 | 252 | 16.1 | 17.7 | 0.00 | 0.00 | 0.00 | 57 | 1014.6 |
| 20260905125851 | 30 | 258 | 24.1 | 25.7 | 0.00 | 0.00 | 0.00 | 54 | 1014.6 |
| 20260905125351 | 30 | 314 | 22.5 | 29.0 | 0.00 | 0.00 | 0.00 | 56 | 1014.6 |
| 20260905124851 | 30 | 307 | 17.7 | 17.7 | 0.00 | 0.00 | 0.00 | 56 | 1014.6 |
| 20260905124352 | 30 | 286 | 29.0 | 32.2 | 0.00 | 0.00 | 0.00 | 56 | 1014.6 |
| 20260905123851 | 30 | 259 | 27.4 | 30.6 | 0.00 | 0.00 | 0.00 | 57 | 1014.9 |
| 20260905123351 | 30 | 228 | 12.9 | 12.9 | 0.00 | 0.00 | 0.00 | 55 | 1014.6 |